Time;durP1;ratioP1;P1;durP2;ratioP2;P2;SDS_P1;SDS_P2;PMS_P1;PMS_P2;Temp;Humidity;BMP_temperature;BMP_pressure;BME280_temperature;BME280_humidity;BME280_pressure;Samples;Min_cycle;Max_cycle;Signal;HPM_P1;HPM_P2
2024/01/13 00:14:24;;;;;;;21.93;12.53;;;0.80;99.90;;;;;;5759419;24;20588;-86
2024/01/13 00:35:00;;;;;;;19.23;11.53;;;0.80;99.90;;;;;;5874180;24;20777;-83
2024/01/13 00:59:44;;;;;;;16.97;11.07;;;0.80;99.90;;;;;;5725881;24;20658;-85
2024/01/13 02:06:16;;;;;;;15.17;9.33;;;0.90;99.90;;;;;;5661161;25;20181;-84
2024/01/13 02:36:40;;;;;;;14.50;9.07;;;0.90;98.30;;;;;;5702007;24;20691;-85
2024/01/13 03:06:40;;;;;;;12.87;9.13;;;0.80;99.20;;;;;;5837260;24;20185;-85
2024/01/13 03:27:09;;;;;;;15.50;7.53;;;0.80;98.70;;;;;;5845060;24;21178;-86
2024/01/13 03:57:28;;;;;;;17.30;10.43;;;0.80;99.90;;;;;;5784636;24;20525;-88
2024/01/13 04:18:01;;;;;;;15.97;10.93;;;0.80;99.90;;;;;;5687102;24;20636;-84
2024/01/13 04:48:15;;;;;;;20.13;12.57;;;0.90;99.90;;;;;;5799039;24;20556;-84
2024/01/13 05:14:00;;;;;;;20.53;12.77;;;0.90;99.90;;;;;;5799501;24;20534;-87
2024/01/13 05:34:07;;;;;;;19.80;12.23;;;0.80;99.90;;;;;;5770025;24;20200;-86
2024/01/13 05:59:50;;;;;;;17.60;11.17;;;0.70;99.90;;;;;;5771375;24;21292;-85
2024/01/13 06:19:48;;;;;;;15.10;10.80;;;0.50;99.90;;;;;;5684783;24;20211;-86
2024/01/13 07:16:04;;;;;;;19.57;11.17;;;0.60;99.90;;;;;;5666953;25;20206;-83
2024/01/13 07:20:17;;;;;;;19.50;10.67;;;0.70;99.90;;;;;;5589711;25;20246;-84
2024/01/13 07:41:12;;;;;;;20.63;11.57;;;0.70;99.90;;;;;;5770766;24;20489;-84
2024/01/13 08:06:00;;;;;;;23.83;13.23;;;0.80;99.90;;;;;;5750375;24;20181;-85
2024/01/13 09:27:27;;;;;;;20.40;10.80;;;1.30;97.30;;;;;;5760970;24;20525;-86
2024/01/13 09:48:05;;;;;;;24.03;12.17;;;1.10;97.30;;;;;;5739663;24;20199;-86
2024/01/13 10:18:25;;;;;;;30.10;14.77;;;1.20;96.70;;;;;;5836163;24;20583;-83
2024/01/13 10:38:51;;;;;;;29.23;14.60;;;0.80;99.00;;;;;;5867664;23;20205;-83
2024/01/13 11:04:06;;;;;;;27.20;14.17;;;0.70;99.90;;;;;;5683925;24;20204;-86
2024/01/13 11:59:52;;;;;;;23.23;12.17;;;0.60;99.90;;;;;;5919172;24;20176;-86
2024/01/13 12:25:12;;;;;;;23.47;12.00;;;0.80;96.60;;;;;;5838287;24;20457;-85
2024/01/13 12:45:27;;;;;;;20.10;11.47;;;0.60;99.90;;;;;;5760617;24;20191;-86
2024/01/13 13:15:28;;;;;;;25.97;14.10;;;0.40;99.90;;;;;;5705871;24;20491;-84
2024/01/13 13:31:08;;;;;;;23.70;13.00;;;0.60;99.90;;;;;;5786278;24;20542;-86
2024/01/13 13:56:19;;;;;;;20.17;10.80;;;0.60;99.20;;;;;;5880892;24;20231;-85
2024/01/13 14:11:52;;;;;;;17.47;9.37;;;0.70;93.90;;;;;;6000094;23;20214;-89
2024/01/13 14:32:13;;;;;;;13.00;9.57;;;0.70;93.10;;;;;;6014286;23;20353;-84
2024/01/13 15:07:34;;;;;;;16.53;9.57;;;0.50;96.40;;;;;;5889231;24;20163;-85
2024/01/13 15:38:03;;;;;;;15.43;8.77;;;0.40;99.90;;;;;;5800606;24;20249;-83
2024/01/13 15:58:28;;;;;;;16.97;9.47;;;0.40;99.90;;;;;;5810838;24;20269;-82
2024/01/13 16:18:44;;;;;;;18.73;9.70;;;0.50;99.90;;;;;;5881052;24;20198;-87
2024/01/13 16:44:04;;;;;;;19.50;12.50;;;0.70;99.90;;;;;;5674313;24;20227;-83
2024/01/13 17:50:04;;;;;;;25.57;15.70;;;1.10;99.90;;;;;;5826052;24;20516;-88
2024/01/13 18:10:27;;;;;;;24.07;14.63;;;1.10;99.90;;;;;;5911792;24;20187;-85
2024/01/13 19:05:58;;;;;;;24.30;15.50;;;1.20;99.90;;;;;;5615666;25;21263;-84
2024/01/13 19:36:35;;;;;;;17.23;12.93;;;1.30;99.90;;;;;;5864771;24;20613;-85
2024/01/13 20:06:59;;;;;;;21.13;12.93;;;1.20;99.90;;;;;;5804747;24;20735;-87
2024/01/13 21:33:07;;;;;;;19.03;12.63;;;1.10;99.90;;;;;;5921994;23;20198;-87
2024/01/13 22:33:49;;;;;;;23.57;15.73;;;1.30;99.90;;;;;;4911048;28;20234;-84
2024/01/13 23:04:25;;;;;;;18.30;12.80;;;1.40;99.90;;;;;;4756278;29;20241;-82
2024/01/13 23:34:23;;;;;;;21.13;13.93;;;1.40;99.90;;;;;;4806522;29;20245;-83
2024/01/13 23:55:09;;;;;;;22.10;14.93;;;1.20;99.90;;;;;;4730754;29;20242;-84
